createdAt,value
2023-03-25T00:01:33.150Z,10.96
2023-03-25T00:03:43.635Z,10.97
2023-03-25T00:05:47.418Z,11.01
2023-03-25T00:07:52.134Z,11.03
2023-03-25T00:09:55.206Z,11.01
2023-03-25T00:11:59.562Z,10.99
2023-03-25T00:14:02.611Z,10.97
2023-03-25T00:16:07.549Z,10.96
2023-03-25T00:18:10.594Z,10.92
2023-03-25T00:20:14.529Z,10.89
2023-03-25T00:22:18.234Z,10.91
2023-03-25T00:24:21.272Z,10.80
2023-03-25T00:26:24.434Z,10.86
2023-03-25T00:28:33.670Z,10.85
2023-03-25T00:30:38.468Z,10.87
2023-03-25T00:32:41.434Z,10.77
2023-03-25T00:34:47.891Z,10.81
2023-03-25T00:36:50.831Z,10.76
2023-03-25T00:38:53.793Z,10.78
2023-03-25T00:40:56.671Z,10.70
2023-03-25T00:42:59.849Z,10.75
2023-03-25T00:45:04.744Z,10.75
2023-03-25T00:47:07.869Z,10.75
2023-03-25T00:49:11.271Z,10.78
2023-03-25T00:51:19.561Z,10.76
2023-03-25T00:53:22.629Z,10.78
2023-03-25T00:55:25.593Z,10.75
2023-03-25T00:57:28.580Z,10.69
2023-03-25T00:59:31.760Z,10.69
2023-03-25T01:01:39.947Z,10.66
2023-03-25T01:03:46.250Z,10.63
2023-03-25T01:05:50.164Z,10.45
2023-03-25T01:07:53.170Z,10.50
2023-03-25T01:09:57.509Z,10.38
2023-03-25T01:12:00.435Z,10.51
2023-03-25T01:14:04.406Z,10.52
2023-03-25T01:16:09.050Z,10.54
2023-03-25T01:18:13.428Z,10.48
2023-03-25T01:20:16.449Z,10.52
2023-03-25T01:22:19.647Z,10.44
2023-03-25T01:24:22.629Z,10.39
2023-03-25T01:26:26.408Z,10.43
2023-03-25T01:28:29.987Z,10.33
2023-03-25T01:30:33.139Z,10.34
2023-03-25T01:32:36.370Z,10.30
2023-03-25T01:34:43.307Z,10.29
2023-03-25T01:36:49.509Z,10.29
2023-03-25T01:38:52.667Z,10.18
2023-03-25T01:40:55.554Z,10.19
2023-03-25T01:42:58.589Z,10.22
2023-03-25T01:45:26.353Z,10.18
2023-03-25T01:47:29.837Z,10.11
2023-03-25T01:49:39.468Z,10.15
2023-03-25T01:51:48.802Z,10.17
2023-03-25T01:53:55.712Z,10.19
2023-03-25T01:56:02.673Z,10.10
2023-03-25T01:58:12.239Z,10.08
2023-03-25T02:00:16.924Z,10.08
2023-03-25T02:02:21.171Z,9.99
2023-03-25T02:04:35.169Z,9.94
2023-03-25T02:06:43.076Z,10.03
2023-03-25T02:08:48.030Z,10.01
2023-03-25T02:10:52.530Z,10.05
2023-03-25T02:12:55.347Z,10.03
2023-03-25T02:15:00.997Z,10.00
2023-03-25T02:17:14.952Z,9.99
2023-03-25T02:19:56.233Z,9.98
2023-03-25T02:22:38.272Z,9.96
2023-03-25T02:25:35.748Z,9.95
2023-03-25T02:28:00.430Z,9.94
2023-03-25T02:30:41.832Z,9.93
2023-03-25T02:33:03.464Z,9.89
2023-03-25T02:35:25.374Z,9.87
2023-03-25T02:37:54.670Z,9.84
2023-03-25T02:40:07.256Z,9.79
2023-03-25T02:42:18.415Z,9.61
2023-03-25T02:44:31.235Z,9.68
2023-03-25T02:46:36.609Z,9.70
2023-03-25T02:48:45.188Z,9.69
2023-03-25T02:50:52.480Z,9.74
2023-03-25T02:53:01.158Z,9.73
2023-03-25T02:55:10.956Z,9.73
2023-03-25T02:57:19.235Z,9.72
2023-03-25T02:59:22.513Z,9.71
2023-03-25T03:01:27.322Z,9.69
2023-03-25T03:03:31.467Z,9.65
2023-03-25T03:05:39.230Z,9.66
2023-03-25T03:07:48.330Z,9.65
2023-03-25T03:10:00.877Z,9.67
2023-03-25T03:12:23.920Z,9.68
2023-03-25T03:14:42.637Z,9.67
2023-03-25T03:16:58.745Z,9.67
2023-03-25T03:19:12.193Z,9.65
2023-03-25T03:21:18.311Z,9.63
2023-03-25T03:23:29.117Z,9.64
2023-03-25T03:25:37.833Z,9.62
2023-03-25T03:27:47.311Z,9.60
2023-03-25T03:29:53.462Z,9.59
2023-03-25T03:32:05.831Z,9.61
2023-03-25T03:34:15.113Z,9.55
2023-03-25T03:36:21.112Z,9.54
2023-03-25T03:38:27.960Z,9.58
2023-03-25T03:40:35.232Z,9.60
2023-03-25T03:42:42.769Z,9.60
2023-03-25T03:44:51.802Z,9.60
2023-03-25T03:46:59.513Z,9.60
2023-03-25T03:49:05.515Z,9.59
2023-03-25T03:51:14.952Z,9.57
2023-03-25T03:53:25.063Z,9.56
2023-03-25T03:55:33.113Z,9.55
2023-03-25T03:57:41.242Z,9.52
2023-03-25T03:59:49.924Z,9.52
2023-03-25T04:01:59.011Z,9.49
2023-03-25T04:04:05.000Z,9.47
2023-03-25T04:06:18.321Z,9.44
2023-03-25T04:08:29.336Z,9.37
2023-03-25T04:10:39.791Z,9.37
2023-03-25T04:12:46.675Z,9.36
2023-03-25T04:14:49.871Z,9.35
2023-03-25T04:16:53.411Z,9.34
2023-03-25T04:18:58.598Z,9.29
2023-03-25T04:21:01.839Z,9.24
2023-03-25T04:23:05.254Z,9.22
2023-03-25T04:25:08.591Z,9.26
2023-03-25T04:27:14.132Z,9.24
2023-03-25T04:29:19.351Z,9.23
2023-03-25T04:31:22.299Z,9.25
2023-03-25T04:33:25.911Z,9.23
2023-03-25T04:35:28.904Z,9.23
2023-03-25T04:37:34.191Z,9.21
2023-03-25T04:39:37.073Z,9.16
2023-03-25T04:41:40.279Z,9.17
2023-03-25T04:43:45.481Z,9.08
2023-03-25T04:45:55.061Z,9.11
2023-03-25T04:47:58.760Z,9.12
2023-03-25T04:50:02.290Z,9.02
2023-03-25T04:52:05.472Z,8.97
2023-03-25T04:54:08.262Z,8.85
2023-03-25T04:56:16.692Z,8.73
2023-03-25T04:58:20.032Z,8.72
2023-03-25T05:00:24.659Z,8.72
2023-03-25T05:02:30.048Z,8.65
2023-03-25T05:04:32.642Z,8.69
2023-03-25T05:06:40.583Z,8.69
2023-03-25T05:08:43.514Z,8.75
2023-03-25T05:10:46.349Z,8.74
2023-03-25T05:12:50.069Z,8.65
2023-03-25T05:14:52.960Z,8.75
2023-03-25T05:16:57.754Z,8.70
2023-03-25T05:19:03.986Z,8.70
2023-03-25T05:21:07.606Z,8.68
2023-03-25T05:23:18.754Z,8.78
2023-03-25T05:25:23.035Z,8.77
2023-03-25T05:27:26.153Z,8.76
2023-03-25T05:29:34.192Z,8.83
2023-03-25T05:31:37.256Z,8.85
2023-03-25T05:33:46.194Z,8.85
2023-03-25T05:35:51.060Z,8.83
2023-03-25T05:37:54.348Z,8.89
2023-03-25T05:39:57.338Z,8.94
2023-03-25T05:42:03.352Z,8.93
2023-03-25T05:44:07.159Z,8.99
2023-03-25T05:46:10.646Z,9.02
2023-03-25T05:48:13.786Z,9.05
2023-03-25T05:50:17.170Z,9.07
2023-03-25T05:52:24.849Z,9.07
2023-03-25T05:54:28.907Z,9.12
2023-03-25T05:56:31.839Z,9.21
2023-03-25T05:58:34.989Z,9.28
2023-03-25T06:00:37.950Z,9.29
2023-03-25T06:02:43.463Z,9.35
2023-03-25T06:04:50.891Z,9.42
2023-03-25T06:06:53.868Z,9.44
2023-03-25T06:08:59.045Z,9.55
2023-03-25T06:11:02.035Z,9.62
2023-03-25T06:13:05.199Z,9.67
2023-03-25T06:15:10.831Z,9.71
2023-03-25T06:17:14.350Z,9.75
2023-03-25T06:19:18.874Z,9.80
2023-03-25T06:21:23.070Z,9.95
2023-03-25T06:23:26.909Z,10.05
2023-03-25T06:25:31.677Z,10.37
2023-03-25T06:27:35.218Z,10.46
2023-03-25T06:29:38.472Z,10.62
2023-03-25T06:31:41.381Z,10.91
2023-03-25T06:33:44.649Z,11.37
2023-03-25T06:35:55.060Z,11.83
2023-03-25T06:37:58.034Z,12.81
2023-03-25T06:40:11.955Z,13.63
2023-03-25T06:42:16.565Z,13.71
2023-03-25T06:44:57.340Z,13.63
2023-03-25T06:47:16.992Z,13.78
2023-03-25T06:49:24.695Z,13.56
2023-03-25T06:51:31.095Z,13.18
2023-03-25T06:53:34.065Z,12.97
2023-03-25T06:55:37.552Z,12.97
2023-03-25T06:57:42.440Z,12.85
2023-03-25T06:59:45.952Z,12.92
2023-03-25T07:01:48.855Z,12.79
2023-03-25T07:03:51.711Z,12.68
2023-03-25T07:05:54.881Z,12.85
2023-03-25T07:07:58.926Z,12.86
2023-03-25T07:10:01.802Z,12.87
2023-03-25T07:12:07.724Z,13.18
2023-03-25T07:14:13.592Z,13.19
2023-03-25T07:16:17.198Z,13.71
2023-03-25T07:18:20.112Z,13.55
2023-03-25T07:20:23.193Z,13.80
2023-03-25T07:22:26.238Z,14.06
2023-03-25T07:24:29.303Z,13.57
2023-03-25T07:26:32.365Z,14.62
2023-03-25T07:28:35.873Z,14.50
2023-03-25T07:30:40.234Z,14.94
2023-03-25T07:32:45.138Z,15.46
2023-03-25T07:34:48.135Z,15.54
2023-03-25T07:36:51.133Z,15.28
2023-03-25T07:38:55.751Z,15.47
2023-03-25T07:41:00.057Z,15.47
2023-03-25T07:43:03.102Z,15.46
2023-03-25T07:45:43.719Z,15.62
2023-03-25T07:47:50.618Z,15.95
2023-03-25T07:49:53.554Z,16.17
2023-03-25T07:51:56.567Z,16.44
2023-03-25T07:54:05.381Z,16.25
2023-03-25T07:56:10.634Z,16.68
2023-03-25T07:58:13.679Z,16.44
2023-03-25T08:00:17.193Z,16.81
2023-03-25T08:02:20.198Z,16.75
2023-03-25T08:04:24.888Z,16.93
2023-03-25T08:06:27.794Z,16.68
2023-03-25T08:08:31.008Z,16.98
2023-03-25T08:10:35.445Z,16.71
2023-03-25T08:12:38.364Z,17.02
2023-03-25T08:14:41.292Z,16.74
2023-03-25T08:16:44.345Z,16.24
2023-03-25T08:18:47.220Z,15.98
2023-03-25T08:20:52.104Z,15.93
2023-03-25T08:22:55.078Z,15.74
2023-03-25T08:24:58.068Z,16.09
2023-03-25T08:27:01.155Z,16.45
2023-03-25T08:29:18.259Z,15.83
2023-03-25T08:31:21.200Z,15.92
2023-03-25T08:33:27.825Z,15.85
2023-03-25T08:35:30.967Z,15.87
2023-03-25T08:37:35.777Z,15.69
2023-03-25T08:39:40.215Z,15.63
2023-03-25T08:41:44.182Z,15.58
2023-03-25T08:43:47.418Z,15.28
2023-03-25T08:45:50.763Z,15.13
2023-03-25T08:47:53.822Z,14.83
2023-03-25T08:49:56.970Z,14.66
2023-03-25T08:52:01.069Z,14.71
2023-03-25T08:54:05.659Z,14.53
2023-03-25T08:56:10.709Z,14.20
2023-03-25T08:58:13.915Z,14.12
2023-03-25T09:00:17.792Z,13.94
2023-03-25T09:02:20.873Z,13.99
2023-03-25T09:04:23.770Z,13.96
2023-03-25T09:06:27.239Z,14.07
2023-03-25T09:08:30.114Z,13.98
2023-03-25T09:10:36.617Z,14.00
2023-03-25T09:12:40.417Z,13.63
2023-03-25T09:14:44.082Z,12.76
2023-03-25T09:16:47.014Z,12.60
2023-03-25T09:18:50.121Z,12.18
2023-03-25T09:20:53.214Z,12.40
2023-03-25T09:22:56.472Z,12.14
2023-03-25T09:24:59.290Z,12.28
2023-03-25T09:27:03.991Z,12.33
2023-03-25T09:29:06.886Z,12.42
2023-03-25T09:31:09.937Z,12.29
2023-03-25T09:33:12.898Z,12.36
2023-03-25T09:35:16.482Z,12.89
2023-03-25T09:37:19.633Z,13.22
2023-03-25T09:39:22.962Z,13.25
2023-03-25T09:41:44.642Z,13.48
2023-03-25T09:44:00.717Z,13.67
2023-03-25T09:46:04.830Z,13.82
2023-03-25T09:48:24.901Z,13.69
2023-03-25T09:50:30.859Z,13.87
2023-03-25T09:52:41.858Z,13.85
2023-03-25T09:54:50.319Z,13.85
2023-03-25T09:56:55.977Z,13.95
2023-03-25T09:59:02.064Z,14.15
2023-03-25T10:01:19.973Z,14.21
2023-03-25T10:03:37.972Z,14.00
2023-03-25T10:06:05.001Z,14.07
2023-03-25T10:08:17.312Z,14.01
2023-03-25T10:10:27.972Z,14.10
2023-03-25T10:12:39.472Z,14.42
2023-03-25T10:14:58.762Z,14.22
2023-03-25T10:17:13.771Z,14.35
2023-03-25T10:19:32.302Z,14.38
2023-03-25T10:21:45.944Z,14.50
2023-03-25T10:23:56.381Z,14.82
2023-03-25T10:26:06.667Z,14.98
2023-03-25T10:28:19.171Z,15.31
2023-03-25T10:30:26.705Z,15.64
2023-03-25T10:32:37.208Z,15.66
2023-03-25T10:34:47.040Z,15.43
2023-03-25T10:36:55.443Z,15.37
2023-03-25T10:39:02.332Z,15.06
2023-03-25T10:41:16.973Z,15.10
2023-03-25T10:43:26.635Z,15.09
2023-03-25T10:45:32.780Z,14.95
2023-03-25T10:47:38.652Z,14.71
2023-03-25T10:49:43.048Z,14.72
2023-03-25T10:51:47.556Z,14.56
2023-03-25T10:53:53.489Z,14.33
2023-03-25T10:55:59.958Z,14.58
2023-03-25T10:58:03.336Z,14.64
2023-03-25T11:00:20.609Z,14.74
2023-03-25T11:02:28.786Z,14.55
2023-03-25T11:04:37.136Z,14.45
2023-03-25T11:06:41.902Z,14.30
2023-03-25T11:08:58.682Z,14.04
2023-03-25T11:11:02.719Z,14.19
2023-03-25T11:13:13.378Z,14.00
2023-03-25T11:15:19.039Z,13.79
2023-03-25T11:17:26.092Z,13.80
2023-03-25T11:19:37.070Z,13.91
2023-03-25T11:21:40.734Z,13.89
2023-03-25T11:23:45.649Z,13.81
2023-03-25T11:25:49.208Z,13.94
2023-03-25T11:27:57.295Z,14.36
2023-03-25T11:30:04.858Z,14.97
2023-03-25T11:32:13.442Z,15.08
2023-03-25T11:34:20.054Z,15.27
2023-03-25T11:36:30.217Z,15.74
2023-03-25T11:38:34.778Z,15.80
2023-03-25T11:40:38.018Z,16.03
2023-03-25T11:42:50.060Z,16.34
2023-03-25T11:44:54.877Z,15.88
2023-03-25T11:47:01.234Z,16.15
2023-03-25T11:49:12.221Z,16.19
2023-03-25T11:51:16.830Z,16.41
2023-03-25T11:53:25.279Z,16.52
2023-03-25T11:55:30.869Z,16.87
2023-03-25T11:57:40.805Z,16.96
2023-03-25T11:59:45.924Z,16.89
2023-03-25T12:01:49.876Z,17.11
2023-03-25T12:04:05.812Z,17.27
2023-03-25T12:06:19.233Z,16.89
2023-03-25T12:08:23.626Z,16.52
2023-03-25T12:10:36.546Z,16.72
2023-03-25T12:12:47.335Z,16.85
2023-03-25T12:15:00.876Z,16.56
2023-03-25T12:17:12.468Z,16.37
2023-03-25T12:19:23.502Z,16.34
2023-03-25T12:21:43.025Z,16.44
2023-03-25T12:24:05.897Z,16.43
2023-03-25T12:26:13.946Z,16.89
2023-03-25T12:28:45.231Z,16.76
2023-03-25T12:30:58.951Z,16.72
2023-03-25T12:33:14.150Z,16.60
2023-03-25T12:35:26.194Z,16.97
2023-03-25T12:37:36.771Z,16.97
2023-03-25T12:39:54.000Z,16.94
2023-03-25T12:42:06.871Z,17.14
2023-03-25T12:44:21.002Z,16.53
2023-03-25T12:46:39.193Z,16.50
2023-03-25T12:48:55.497Z,16.44
2023-03-25T12:51:09.570Z,16.00
2023-03-25T12:53:29.241Z,15.88
2023-03-25T12:55:52.493Z,15.70
2023-03-25T12:58:06.974Z,15.75
2023-03-25T13:00:23.532Z,15.48
2023-03-25T13:02:52.941Z,15.56
2023-03-25T13:05:07.070Z,15.77
2023-03-25T13:07:14.626Z,16.00
2023-03-25T13:09:23.190Z,15.96
2023-03-25T13:11:34.012Z,15.77
2023-03-25T13:13:38.659Z,15.43
2023-03-25T13:15:44.591Z,15.64
2023-03-25T13:17:52.070Z,15.88
2023-03-25T13:19:59.251Z,15.69
2023-03-25T13:22:07.789Z,15.50
2023-03-25T13:24:15.720Z,15.59
2023-03-25T13:26:21.898Z,15.45
2023-03-25T13:28:38.614Z,15.44
2023-03-25T13:30:44.189Z,15.46
2023-03-25T13:32:51.272Z,15.19
2023-03-25T13:34:59.800Z,15.14
2023-03-25T13:37:12.810Z,15.00
2023-03-25T13:39:23.508Z,14.90
2023-03-25T13:41:33.449Z,15.10
2023-03-25T13:43:47.417Z,15.07
2023-03-25T13:45:55.392Z,15.03
2023-03-25T13:48:05.755Z,14.80
2023-03-25T13:50:18.335Z,14.77
2023-03-25T13:52:22.655Z,14.86
2023-03-25T13:54:34.568Z,14.40
2023-03-25T13:57:10.407Z,14.32
2023-03-25T13:59:52.362Z,14.17
2023-03-25T14:02:35.198Z,14.09
2023-03-25T14:05:04.945Z,14.01
2023-03-25T14:07:39.697Z,14.12
2023-03-25T14:10:06.899Z,14.20
2023-03-25T14:12:12.607Z,14.02
2023-03-25T14:14:22.523Z,13.98
2023-03-25T14:16:28.374Z,14.05
2023-03-25T14:18:32.460Z,13.98
2023-03-25T14:20:41.378Z,13.37
2023-03-25T14:22:45.250Z,13.46
2023-03-25T14:24:51.413Z,13.13
2023-03-25T14:27:00.328Z,13.22
2023-03-25T14:29:10.150Z,13.05
2023-03-25T14:31:32.327Z,13.29
2023-03-25T14:34:08.401Z,13.37
2023-03-25T14:36:11.489Z,13.17
2023-03-25T14:38:41.941Z,13.03
2023-03-25T14:41:01.397Z,13.23
2023-03-25T14:43:21.024Z,13.15
2023-03-25T14:45:50.936Z,13.17
2023-03-25T14:47:55.561Z,13.19
2023-03-25T14:50:06.929Z,13.39
2023-03-25T14:52:16.318Z,13.29
2023-03-25T14:54:30.085Z,13.14
2023-03-25T14:56:36.696Z,13.13
2023-03-25T14:58:40.234Z,13.16
2023-03-25T15:00:51.973Z,13.03
2023-03-25T15:03:03.297Z,13.18
2023-03-25T15:05:18.142Z,13.17
2023-03-25T15:07:41.580Z,13.22
2023-03-25T15:09:51.532Z,13.20
2023-03-25T15:11:59.912Z,12.72
2023-03-25T15:14:06.147Z,12.99
2023-03-25T15:16:18.547Z,13.12
2023-03-25T15:18:54.361Z,13.16
2023-03-25T15:21:03.540Z,13.12
2023-03-25T15:23:37.225Z,13.16
2023-03-25T15:25:40.351Z,13.13
2023-03-25T15:28:11.590Z,12.93
2023-03-25T15:30:45.150Z,12.85
2023-03-25T15:32:59.881Z,12.73
2023-03-25T15:35:37.810Z,12.72
2023-03-25T15:38:08.298Z,12.51
2023-03-25T15:40:25.728Z,12.46
2023-03-25T15:42:51.827Z,12.51
2023-03-25T15:45:21.628Z,12.28
2023-03-25T15:47:38.460Z,12.43
2023-03-25T15:50:17.728Z,12.41
2023-03-25T15:52:43.730Z,12.33
2023-03-25T15:54:51.569Z,12.30
2023-03-25T15:56:58.870Z,12.25
2023-03-25T15:59:07.391Z,12.21
2023-03-25T16:01:20.658Z,12.30
2023-03-25T16:03:27.767Z,12.12
2023-03-25T16:05:32.522Z,12.07
2023-03-25T16:07:36.338Z,12.10
2023-03-25T16:09:41.918Z,11.87
2023-03-25T16:11:47.199Z,11.73
2023-03-25T16:14:02.773Z,11.61
2023-03-25T16:16:07.332Z,11.82
2023-03-25T16:18:15.080Z,11.80
2023-03-25T16:20:22.314Z,11.70
2023-03-25T16:22:27.986Z,11.63
2023-03-25T16:24:34.301Z,11.76
2023-03-25T16:26:40.636Z,11.62
2023-03-25T16:28:45.350Z,11.50
2023-03-25T16:30:51.715Z,11.49
2023-03-25T16:33:05.804Z,11.35
2023-03-25T16:35:20.297Z,11.42
2023-03-25T16:37:25.544Z,11.33
2023-03-25T16:39:32.268Z,11.33
2023-03-25T16:41:36.742Z,11.10
2023-03-25T16:43:39.764Z,11.09
2023-03-25T16:45:45.511Z,11.24
2023-03-25T16:47:50.438Z,11.09
2023-03-25T16:49:56.315Z,11.06
2023-03-25T16:52:00.805Z,10.82
2023-03-25T16:54:10.093Z,10.78
2023-03-25T16:56:24.208Z,10.60
2023-03-25T16:58:28.584Z,10.52
2023-03-25T17:00:43.553Z,10.47
2023-03-25T17:02:50.104Z,10.49
2023-03-25T17:04:57.275Z,10.35
2023-03-25T17:07:09.696Z,10.42
2023-03-25T17:09:19.196Z,10.25
2023-03-25T17:11:24.797Z,10.24
2023-03-25T17:13:29.149Z,10.23
2023-03-25T17:15:36.666Z,10.11
2023-03-25T17:17:44.251Z,10.11
2023-03-25T17:19:52.262Z,9.93
2023-03-25T17:22:19.728Z,9.94
2023-03-25T17:24:25.159Z,9.99
2023-03-25T17:26:34.016Z,10.09
2023-03-25T17:28:40.211Z,10.04
2023-03-25T17:30:44.978Z,10.00
2023-03-25T17:32:48.976Z,10.04
2023-03-25T17:35:08.748Z,10.06
2023-03-25T17:37:14.112Z,10.06
2023-03-25T17:39:19.805Z,9.89
2023-03-25T17:41:27.737Z,9.86
2023-03-25T17:43:33.537Z,9.75
2023-03-25T17:45:36.656Z,9.70
2023-03-25T17:47:39.619Z,9.59
2023-03-25T17:49:42.749Z,9.59
2023-03-25T17:51:47.673Z,9.54
2023-03-25T17:53:51.158Z,9.59
2023-03-25T17:55:54.377Z,9.51
2023-03-25T17:57:58.245Z,9.50
2023-03-25T18:00:01.537Z,9.50
2023-03-25T18:02:12.371Z,9.51
2023-03-25T18:04:16.030Z,9.48
2023-03-25T18:06:19.068Z,9.48
2023-03-25T18:08:25.441Z,9.52
2023-03-25T18:10:31.184Z,9.45
2023-03-25T18:12:34.683Z,9.62
2023-03-25T18:14:38.055Z,9.53
2023-03-25T18:16:41.301Z,9.47
2023-03-25T18:18:44.463Z,9.44
2023-03-25T18:20:48.883Z,9.35
2023-03-25T18:22:54.622Z,9.40
2023-03-25T18:25:01.976Z,9.36
2023-03-25T18:27:06.757Z,9.29
2023-03-25T18:29:12.941Z,9.24
2023-03-25T18:31:17.929Z,9.19
2023-03-25T18:33:21.367Z,9.15
2023-03-25T18:35:24.447Z,9.11
2023-03-25T18:37:27.836Z,9.05
2023-03-25T18:39:32.485Z,9.03
2023-03-25T18:41:36.958Z,9.05
2023-03-25T18:43:39.747Z,9.06
2023-03-25T18:45:43.296Z,8.99
2023-03-25T18:47:46.397Z,8.85
2023-03-25T18:49:55.660Z,8.75
2023-03-25T18:51:59.568Z,8.65
2023-03-25T18:54:02.301Z,8.68
2023-03-25T18:56:07.451Z,8.68
2023-03-25T18:58:17.802Z,8.64
2023-03-25T19:00:24.172Z,8.52
2023-03-25T19:02:26.943Z,8.40
2023-03-25T19:04:32.301Z,8.36
2023-03-25T19:06:35.220Z,8.29
2023-03-25T19:08:38.423Z,8.29
2023-03-25T19:10:41.497Z,8.28
2023-03-25T19:12:46.097Z,8.22
2023-03-25T19:14:50.306Z,8.15
2023-03-25T19:17:03.093Z,8.23
2023-03-25T19:19:06.328Z,8.21
2023-03-25T19:21:10.052Z,8.06
2023-03-25T19:23:15.988Z,8.01
2023-03-25T19:25:20.207Z,7.90
2023-03-25T19:27:23.149Z,7.85
2023-03-25T19:29:26.249Z,7.79
2023-03-25T19:31:30.855Z,7.64
2023-03-25T19:33:33.928Z,7.62
2023-03-25T19:35:36.864Z,7.61
2023-03-25T19:37:47.724Z,7.63
2023-03-25T19:39:50.566Z,7.52
2023-03-25T19:41:53.527Z,7.50
2023-03-25T19:43:56.966Z,7.56
2023-03-25T19:46:01.333Z,7.52
2023-03-25T19:48:07.356Z,7.45
2023-03-25T19:50:11.384Z,7.40
2023-03-25T19:52:14.286Z,7.37
2023-03-25T19:54:17.398Z,7.36
2023-03-25T19:56:20.232Z,7.41
2023-03-25T19:58:23.395Z,7.33
2023-03-25T20:00:28.298Z,7.40
2023-03-25T20:02:33.832Z,7.44
2023-03-25T20:04:38.337Z,7.45
2023-03-25T20:06:41.472Z,7.54
2023-03-25T20:08:44.326Z,7.62
2023-03-25T20:10:47.128Z,7.68
2023-03-25T20:12:51.008Z,7.73
2023-03-25T20:14:53.864Z,7.72
2023-03-25T20:16:56.734Z,7.77
2023-03-25T20:18:59.530Z,7.75
2023-03-25T20:21:07.333Z,7.76
2023-03-25T20:23:10.650Z,7.93
2023-03-25T20:25:14.729Z,7.99
2023-03-25T20:27:17.793Z,8.04
2023-03-25T20:29:22.568Z,8.07
2023-03-25T20:31:26.852Z,8.11
2023-03-25T20:33:30.284Z,8.12
2023-03-25T20:35:33.489Z,8.18
2023-03-25T20:37:39.990Z,8.24
2023-03-25T20:39:43.170Z,8.32
2023-03-25T20:41:46.116Z,8.33
2023-03-25T20:43:48.937Z,8.36
2023-03-25T20:45:55.910Z,8.35
2023-03-25T20:47:59.339Z,8.42
2023-03-25T20:50:02.352Z,8.46
2023-03-25T20:52:05.792Z,8.47
2023-03-25T20:54:10.307Z,8.47
2023-03-25T20:56:13.372Z,8.42
2023-03-25T20:58:16.361Z,8.39
2023-03-25T21:00:19.890Z,8.42
2023-03-25T21:02:22.903Z,8.48
2023-03-25T21:04:26.251Z,8.52
2023-03-25T21:06:30.419Z,8.49
2023-03-25T21:08:34.731Z,8.49
2023-03-25T21:10:39.540Z,8.45
2023-03-25T21:12:44.870Z,8.52
2023-03-25T21:14:47.630Z,8.52
2023-03-25T21:16:50.814Z,8.56
2023-03-25T21:18:56.813Z,8.57
2023-03-25T21:21:01.932Z,8.55
2023-03-25T21:23:07.452Z,8.57
2023-03-25T21:25:10.986Z,8.58
2023-03-25T21:27:17.768Z,8.53
2023-03-25T21:29:21.322Z,8.53
2023-03-25T21:31:24.498Z,8.52
2023-03-25T21:33:27.471Z,8.52
2023-03-25T21:35:32.096Z,8.54
2023-03-25T21:37:38.173Z,8.52
2023-03-25T21:39:41.141Z,8.53
2023-03-25T21:41:44.063Z,8.51
2023-03-25T21:43:48.452Z,8.51
2023-03-25T21:45:51.814Z,8.51
2023-03-25T21:47:55.411Z,8.42
2023-03-25T21:49:58.282Z,8.45
2023-03-25T21:52:01.706Z,8.41
2023-03-25T21:54:04.881Z,8.42
2023-03-25T21:56:10.648Z,8.40
2023-03-25T21:58:13.527Z,8.39
2023-03-25T22:00:19.845Z,8.37
2023-03-25T22:02:23.132Z,8.37
2023-03-25T22:04:26.339Z,8.34
2023-03-25T22:06:31.783Z,8.36
2023-03-25T22:08:34.884Z,8.32
2023-03-25T22:10:37.890Z,8.32
2023-03-25T22:12:41.068Z,8.29
2023-03-25T22:14:43.885Z,8.31
2023-03-25T22:16:48.682Z,8.30
2023-03-25T22:18:52.013Z,8.24
2023-03-25T22:21:05.103Z,8.25
2023-03-25T22:23:10.842Z,8.20
2023-03-25T22:25:14.175Z,8.22
2023-03-25T22:27:17.362Z,8.27
2023-03-25T22:29:20.422Z,8.18
2023-03-25T22:31:31.296Z,8.23
2023-03-25T22:33:36.611Z,8.13
2023-03-25T22:35:41.470Z,8.15
2023-03-25T22:37:46.045Z,8.10
2023-03-25T22:39:49.052Z,8.14
2023-03-25T22:41:52.146Z,8.13
2023-03-25T22:43:56.371Z,8.05
2023-03-25T22:46:01.455Z,8.07
2023-03-25T22:48:06.212Z,8.10
2023-03-25T22:50:11.920Z,8.08
2023-03-25T22:52:14.404Z,8.03
2023-03-25T22:54:17.878Z,7.99
2023-03-25T22:56:21.719Z,8.05
2023-03-25T22:58:27.287Z,8.04
2023-03-25T23:00:30.280Z,7.98
2023-03-25T23:02:33.209Z,8.00
2023-03-25T23:04:36.169Z,7.95
2023-03-25T23:06:42.124Z,8.00
2023-03-25T23:08:45.293Z,8.03
2023-03-25T23:10:48.268Z,8.01
2023-03-25T23:12:51.329Z,7.85
2023-03-25T23:14:56.249Z,7.82
2023-03-25T23:16:59.091Z,7.92
2023-03-25T23:19:03.049Z,7.84
2023-03-25T23:21:07.193Z,7.90
2023-03-25T23:23:11.532Z,7.86
2023-03-25T23:25:14.493Z,7.82
2023-03-25T23:27:17.573Z,7.76
2023-03-25T23:29:20.450Z,7.89
2023-03-25T23:31:29.527Z,7.76
2023-03-25T23:33:33.005Z,7.77
2023-03-25T23:35:36.201Z,7.68
2023-03-25T23:37:41.939Z,7.66
2023-03-25T23:39:46.654Z,7.57
2023-03-25T23:41:49.491Z,7.55
2023-03-25T23:43:53.967Z,7.61
2023-03-25T23:45:57.912Z,7.56
2023-03-25T23:48:01.535Z,7.52
2023-03-25T23:50:05.015Z,7.51
2023-03-25T23:52:11.681Z,7.49
2023-03-25T23:54:16.177Z,7.52
2023-03-25T23:56:22.755Z,7.42
2023-03-25T23:58:26.248Z,7.49
